Time;durP1;ratioP1;P1;durP2;ratioP2;P2;SDS_P1;SDS_P2;PMS_P1;PMS_P2;Temp;Humidity;BMP_temperature;BMP_pressure;BME280_temperature;BME280_humidity;BME280_pressure;Samples;Min_cycle;Max_cycle;Signal;HPM_P1;HPM_P2
2021/10/31 00:00:15;;;;;;;31.23;26.02;;;;;;;6.26;100.00;99063.91;2087816;28;20696;-75
2021/10/31 00:01:17;;;;;;;34.23;26.73;;;;;;;6.31;100.00;99069.97;2080505;28;20604;-74
2021/10/31 00:02:19;;;;;;;33.47;26.38;;;;;;;6.31;100.00;99069.97;2080547;28;20227;-74
2021/10/31 00:03:19;;;;;;;33.85;27.10;;;;;;;6.25;100.00;99057.78;2080545;28;20222;-75
2021/10/31 00:04:21;;;;;;;33.50;26.97;;;;;;;6.19;100.00;99059.66;2087222;28;20225;-75
2021/10/31 00:05:22;;;;;;;34.17;26.90;;;;;;;6.15;100.00;99052.50;2087361;28;20596;-75
2021/10/31 00:06:24;;;;;;;36.73;26.13;;;;;;;6.13;100.00;99060.72;2088649;28;20305;-75
2021/10/31 00:07:26;;;;;;;32.25;25.83;;;;;;;6.07;100.00;99056.47;2096007;28;20221;-75
2021/10/31 00:08:28;;;;;;;34.85;27.02;;;;;;;6.07;100.00;99059.13;2087575;28;20257;-75
2021/10/31 00:09:29;;;;;;;37.13;28.00;;;;;;;6.04;100.00;99062.31;2079647;28;20219;-75
2021/10/31 00:10:31;;;;;;;41.40;29.43;;;;;;;6.10;100.00;99060.47;2079552;28;20219;-74
2021/10/31 00:11:32;;;;;;;40.28;28.88;;;;;;;6.24;100.00;99057.00;2087910;28;20219;-74
2021/10/31 00:12:34;;;;;;;39.80;28.73;;;;;;;6.32;100.00;99058.31;2087879;28;20708;-74
2021/10/31 00:13:35;;;;;;;38.30;29.52;;;;;;;6.30;100.00;99059.66;2071367;28;20713;-75
2021/10/31 00:14:37;;;;;;;40.08;28.90;;;;;;;6.29;100.00;99052.75;2079465;28;20649;-75
2021/10/31 00:15:38;;;;;;;42.47;28.77;;;;;;;6.33;100.00;99064.41;2087540;28;20229;-75
2021/10/31 00:16:40;;;;;;;37.17;27.30;;;;;;;6.21;100.00;99060.19;2080446;28;20306;-74
2021/10/31 00:17:41;;;;;;;33.63;28.08;;;;;;;6.10;100.00;99066.56;2079394;28;20234;-74
2021/10/31 00:18:45;;;;;;;35.63;27.45;;;;;;;6.03;100.00;99071.31;2071493;28;20600;-74
2021/10/31 00:19:46;;;;;;;39.25;28.25;;;;;;;6.01;100.00;99067.38;2079678;28;20298;-74
2021/10/31 00:20:48;;;;;;;39.58;28.70;;;;;;;6.02;100.00;99076.91;2080302;28;20250;-75
2021/10/31 00:21:49;;;;;;;41.70;29.98;;;;;;;5.99;100.00;99074.75;2080407;28;20219;-75
2021/10/31 00:22:52;;;;;;;42.33;29.07;;;;;;;6.02;100.00;99075.03;2080326;28;20223;-74
2021/10/31 00:23:54;;;;;;;40.50;29.95;;;;;;;6.05;100.00;99077.16;2079879;28;20231;-75
2021/10/31 00:24:55;;;;;;;39.80;28.58;;;;;;;6.21;100.00;99076.09;2079883;28;20222;-75
2021/10/31 00:25:56;;;;;;;39.63;30.08;;;;;;;6.39;100.00;99079.25;2079563;28;20234;-75
2021/10/31 00:27:00;;;;;;;34.73;28.80;;;;;;;6.30;100.00;99067.59;2087790;28;20249;-75
2021/10/31 00:28:01;;;;;;;38.70;29.77;;;;;;;6.34;100.00;99068.63;2080358;28;20888;-75
2021/10/31 00:29:03;;;;;;;42.97;29.93;;;;;;;6.21;100.00;99068.13;2079460;28;20216;-75
2021/10/31 00:30:04;;;;;;;41.22;30.77;;;;;;;6.12;100.00;99068.94;2079524;28;20230;-75
2021/10/31 00:31:06;;;;;;;40.38;28.80;;;;;;;6.04;100.00;99074.78;2073692;28;20596;-75
2021/10/31 00:32:07;;;;;;;39.22;29.60;;;;;;;5.95;100.00;99079.81;2087340;28;20222;-75
2021/10/31 00:33:13;;;;;;;42.67;29.42;;;;;;;5.85;100.00;99075.28;2095934;28;20244;-75
2021/10/31 00:34:15;;;;;;;43.08;29.35;;;;;;;5.78;100.00;99077.38;2087888;28;20218;-75
2021/10/31 00:35:17;;;;;;;41.30;29.42;;;;;;;5.70;100.00;99074.47;2088352;28;20673;-74
2021/10/31 00:36:18;;;;;;;37.90;28.55;;;;;;;5.63;100.00;99078.16;2088571;28;20249;-75
2021/10/31 00:37:20;;;;;;;38.77;28.93;;;;;;;5.58;100.00;99080.81;2088581;28;20238;-75
2021/10/31 00:38:23;;;;;;;46.75;29.88;;;;;;;5.65;100.00;99078.72;2088490;28;20226;-74
2021/10/31 00:39:24;;;;;;;42.75;30.55;;;;;;;5.66;100.00;99072.34;2080014;28;20223;-75
2021/10/31 00:40:26;;;;;;;41.42;30.25;;;;;;;5.61;100.00;99080.28;2079476;28;20235;-75
2021/10/31 00:41:32;;;;;;;41.90;30.63;;;;;;;5.57;100.00;99070.50;2071513;28;20220;-74
2021/10/31 00:42:33;;;;;;;40.53;29.25;;;;;;;5.58;100.00;99075.50;2071811;28;20254;-75
2021/10/31 00:43:35;;;;;;;44.63;29.70;;;;;;;5.57;100.00;99073.94;2071182;28;20246;-75
2021/10/31 00:44:36;;;;;;;40.90;29.40;;;;;;;5.59;100.00;99077.09;2071475;28;20224;-75
2021/10/31 00:45:38;;;;;;;38.73;29.70;;;;;;;5.57;100.00;99073.94;2073555;28;20244;-75
2021/10/31 00:46:39;;;;;;;35.83;28.25;;;;;;;5.54;100.00;99077.06;2079171;28;20218;-76
2021/10/31 00:47:42;;;;;;;39.65;28.65;;;;;;;5.48;100.00;99080.78;2079404;28;20231;-75
2021/10/31 00:48:43;;;;;;;38.80;29.10;;;;;;;5.39;100.00;99072.56;2079394;28;20269;-75
2021/10/31 00:49:44;;;;;;;38.73;29.83;;;;;;;5.31;100.00;99075.72;2080081;28;20231;-74
2021/10/31 00:50:49;;;;;;;40.20;28.48;;;;;;;5.24;100.00;99063.81;2080233;28;20219;-74
2021/10/31 00:51:50;;;;;;;32.30;26.92;;;;;;;5.18;100.00;99076.19;2087638;28;20219;-74
2021/10/31 00:52:51;;;;;;;36.30;28.17;;;;;;;5.10;100.00;99074.06;2087708;28;20268;-75
2021/10/31 00:53:56;;;;;;;41.63;28.20;;;;;;;4.99;100.00;99067.94;2078987;28;20299;-76
2021/10/31 00:54:58;;;;;;;34.65;27.65;;;;;;;4.92;100.00;99066.59;2078604;28;20235;-74
2021/10/31 00:56:00;;;;;;;40.78;28.83;;;;;;;4.85;100.00;99063.38;2079545;28;20575;-75
2021/10/31 00:57:01;;;;;;;42.22;29.15;;;;;;;4.79;100.00;99065.22;2087732;28;20285;-75
2021/10/31 00:58:03;;;;;;;36.53;27.43;;;;;;;4.71;100.00;99055.94;2087715;28;20227;-75
2021/10/31 00:59:04;;;;;;;38.45;28.60;;;;;;;4.67;100.00;99065.41;2087644;28;20462;-74
2021/10/31 01:00:07;;;;;;;37.87;28.13;;;;;;;4.63;100.00;99063.56;2088399;28;20252;-74
2021/10/31 01:01:11;;;;;;;42.42;30.20;;;;;;;4.56;100.00;99066.44;2087496;28;20276;-75
2021/10/31 01:02:14;;;;;;;36.53;28.67;;;;;;;4.51;100.00;99061.91;2087664;28;20227;-75
2021/10/31 01:03:16;;;;;;;41.50;30.00;;;;;;;4.48;100.00;99061.63;2088302;28;20665;-75
2021/10/31 01:04:20;;;;;;;40.15;29.35;;;;;;;4.44;100.00;99058.72;2095836;28;20230;-74
2021/10/31 01:05:25;;;;;;;39.08;28.98;;;;;;;4.38;100.00;99058.94;2095561;28;20222;-75
2021/10/31 01:07:06;;;;;;;39.97;30.27;;;;;;;4.32;100.00;99063.38;2088051;28;20222;-74
2021/10/31 01:08:17;;;;;;;37.15;28.92;;;;;;;4.30;100.00;99067.31;2062009;28;20252;-75
2021/10/31 01:09:24;;;;;;;39.63;29.65;;;;;;;4.25;100.00;99062.78;2086529;28;20233;-74
2021/10/31 01:10:31;;;;;;;39.92;28.70;;;;;;;4.23;100.00;99059.63;2080441;28;20257;-75
2021/10/31 01:11:41;;;;;;;41.47;30.40;;;;;;;4.25;100.00;99058.31;2081182;28;20299;-74
2021/10/31 01:13:00;;;;;;;39.83;29.23;;;;;;;4.23;100.00;99064.91;2088775;28;20300;-74
2021/10/31 01:14:18;;;;;;;40.30;28.70;;;;;;;4.20;100.00;99062.78;2089077;28;20223;-74
2021/10/31 01:15:23;;;;;;;44.47;30.42;;;;;;;4.17;100.00;99066.72;2088834;28;20222;-74
2021/10/31 01:16:34;;;;;;;42.35;29.52;;;;;;;4.15;100.00;99068.81;2088867;28;20245;-75
2021/10/31 01:17:43;;;;;;;37.28;27.63;;;;;;;4.12;100.00;99064.03;2088862;28;20659;-74
2021/10/31 01:19:11;;;;;;;40.05;29.17;;;;;;;4.11;100.00;99073.00;2081698;28;20645;-74
2021/10/31 01:20:21;;;;;;;37.90;28.67;;;;;;;4.09;100.00;99066.41;2088361;28;20230;-74
2021/10/31 01:21:29;;;;;;;42.30;29.30;;;;;;;4.11;100.00;99069.59;2088795;28;20233;-74
2021/10/31 01:22:53;;;;;;;42.10;30.10;;;;;;;4.07;100.00;99063.19;2097252;28;20221;-74
2021/10/31 01:24:08;;;;;;;39.65;29.50;;;;;;;4.13;100.00;99078.84;2093951;28;20284;-74
2021/10/31 01:25:28;;;;;;;41.60;30.92;;;;;;;4.29;100.00;99071.03;2087735;28;20760;-74
2021/10/31 01:26:42;;;;;;;46.15;32.17;;;;;;;4.52;100.00;99075.94;2088585;28;20749;-74
2021/10/31 01:27:52;;;;;;;48.45;32.08;;;;;;;4.55;100.00;99075.41;2081743;28;20254;-74
2021/10/31 01:29:04;;;;;;;43.53;31.60;;;;;;;4.53;100.00;99070.38;2080446;28;20219;-75
2021/10/31 01:30:14;;;;;;;47.28;32.22;;;;;;;4.54;100.00;99071.19;2078015;28;20231;-74
2021/10/31 01:31:20;;;;;;;41.15;30.75;;;;;;;4.53;100.00;99066.94;2083601;28;20226;-74
2021/10/31 01:32:29;;;;;;;41.20;31.33;;;;;;;4.49;100.00;99069.28;2080555;28;20646;-74
2021/10/31 01:33:41;;;;;;;39.08;30.67;;;;;;;4.46;100.00;99083.03;2080562;28;20311;-74
2021/10/31 01:34:53;;;;;;;42.20;31.00;;;;;;;4.40;100.00;99081.38;2088457;28;20231;-75
2021/10/31 01:36:04;;;;;;;39.58;30.23;;;;;;;4.37;100.00;99081.91;2088776;28;20226;-74
2021/10/31 01:37:14;;;;;;;43.38;31.10;;;;;;;4.32;100.00;99076.56;2089834;28;20223;-74
2021/10/31 01:38:20;;;;;;;43.90;30.67;;;;;;;4.27;100.00;99073.91;2089509;28;20214;-74
2021/10/31 01:39:25;;;;;;;42.85;30.17;;;;;;;4.23;100.00;99070.19;2089839;28;20738;-74
2021/10/31 01:40:29;;;;;;;45.42;30.33;;;;;;;4.19;100.00;99077.81;2081830;28;20747;-74
2021/10/31 01:41:42;;;;;;;40.17;29.55;;;;;;;4.15;100.00;99081.22;2079994;28;20223;-74
2021/10/31 01:42:52;;;;;;;40.55;28.67;;;;;;;4.09;100.00;99076.97;2081883;28;20227;-75
2021/10/31 01:44:00;;;;;;;37.30;29.90;;;;;;;4.04;100.00;99067.16;2087614;28;20231;-75
2021/10/31 01:45:04;;;;;;;43.05;31.17;;;;;;;4.01;100.00;99072.94;2080612;28;20273;-74
2021/10/31 01:46:10;;;;;;;40.03;29.92;;;;;;;4.03;100.00;99075.31;2072860;28;20230;-75
2021/10/31 01:47:17;;;;;;;44.67;30.40;;;;;;;4.04;100.00;99083.00;2080892;28;20223;-74
2021/10/31 01:48:23;;;;;;;40.92;29.50;;;;;;;4.01;100.00;99072.94;2081451;28;20223;-74
2021/10/31 01:49:31;;;;;;;39.38;29.65;;;;;;;4.04;100.00;99076.91;2074727;28;20224;-74
2021/10/31 01:50:39;;;;;;;42.67;29.90;;;;;;;4.06;100.00;99082.72;2089018;28;20362;-74
2021/10/31 01:51:43;;;;;;;37.58;29.40;;;;;;;4.03;100.00;99075.31;2088509;28;20226;-74
2021/10/31 01:52:49;;;;;;;39.55;29.70;;;;;;;4.00;100.00;99084.56;2088862;28;20222;-74
2021/10/31 01:53:55;;;;;;;42.95;30.50;;;;;;;3.94;100.00;99081.06;2089051;28;20273;-74
2021/10/31 01:54:59;;;;;;;42.88;31.88;;;;;;;3.97;100.00;99077.13;2081445;28;20247;-74
2021/10/31 01:56:07;;;;;;;42.97;30.67;;;;;;;4.04;100.00;99076.91;2080667;28;20230;-74
2021/10/31 01:57:10;;;;;;;42.85;30.95;;;;;;;4.17;100.00;99079.09;2086566;28;20227;-74
2021/10/31 01:58:13;;;;;;;39.67;28.67;;;;;;;4.30;100.00;99078.69;2089002;28;26830;-75
2021/10/31 01:59:18;;;;;;;39.63;28.48;;;;;;;4.48;100.00;99078.28;2088800;28;20292;-74
2021/10/31 02:00:20;;;;;;;34.65;27.60;;;;;;;4.64;100.00;99086.28;2085281;28;20686;-74
2021/10/31 02:01:23;;;;;;;38.53;28.67;;;;;;;4.73;100.00;99082.09;2088830;28;20223;-74
2021/10/31 02:02:25;;;;;;;42.10;28.55;;;;;;;4.82;100.00;99078.72;2086810;28;20716;-74
2021/10/31 02:03:27;;;;;;;40.03;29.48;;;;;;;4.92;100.00;99077.16;2081929;28;20227;-74
2021/10/31 02:04:31;;;;;;;42.50;29.13;;;;;;;4.91;100.00;99079.00;2080589;28;20219;-75
2021/10/31 02:05:34;;;;;;;39.15;28.30;;;;;;;4.90;100.00;99076.63;2081046;28;20219;-74
2021/10/31 02:06:38;;;;;;;38.13;28.30;;;;;;;4.86;100.00;99080.84;2088560;28;20211;-74
2021/10/31 02:07:45;;;;;;;38.72;28.33;;;;;;;4.80;100.00;99075.53;2080179;28;20234;-74
2021/10/31 02:08:46;;;;;;;40.25;29.27;;;;;;;4.72;100.00;99068.09;2080643;28;20227;-74
2021/10/31 02:09:49;;;;;;;41.78;28.52;;;;;;;4.72;100.00;99073.38;2081249;28;20282;-74
2021/10/31 02:10:53;;;;;;;41.08;29.67;;;;;;;4.68;100.00;99076.78;2081220;28;20227;-74
2021/10/31 02:11:57;;;;;;;44.88;30.20;;;;;;;4.61;100.00;99076.25;2090031;28;20237;-74
2021/10/31 02:12:59;;;;;;;40.63;29.73;;;;;;;4.54;100.00;99074.63;2088487;28;20246;-74
2021/10/31 02:14:00;;;;;;;41.72;28.58;;;;;;;4.46;100.00;99077.72;2080376;28;20223;-74
2021/10/31 02:15:02;;;;;;;43.30;29.30;;;;;;;4.39;100.00;99077.16;2080602;28;20215;-74
2021/10/31 02:16:04;;;;;;;39.15;28.70;;;;;;;4.33;100.00;99085.28;2080142;28;20230;-74
2021/10/31 02:17:06;;;;;;;35.50;28.33;;;;;;;4.27;100.00;99087.13;2072387;28;20572;-74
2021/10/31 02:18:08;;;;;;;41.05;29.13;;;;;;;4.19;100.00;99080.47;2080173;28;20301;-75
2021/10/31 02:19:16;;;;;;;37.53;28.23;;;;;;;4.16;100.00;99080.16;2081110;28;20223;-74
2021/10/31 02:20:18;;;;;;;40.47;28.13;;;;;;;4.09;100.00;99074.31;2081155;28;20269;-74
2021/10/31 02:21:22;;;;;;;37.72;29.17;;;;;;;4.03;100.00;99068.19;2087973;28;20302;-74
2021/10/31 02:22:25;;;;;;;38.22;29.08;;;;;;;4.00;100.00;99070.53;2088157;28;20226;-74
2021/10/31 02:23:29;;;;;;;39.72;29.35;;;;;;;3.96;100.00;99073.69;2088953;28;20225;-75
2021/10/31 02:24:30;;;;;;;37.63;28.48;;;;;;;3.92;100.00;99071.81;2088539;28;20225;-74
2021/10/31 02:25:33;;;;;;;41.00;29.10;;;;;;;3.90;100.00;99076.53;2080019;28;20231;-75
2021/10/31 02:26:34;;;;;;;39.80;28.92;;;;;;;3.83;100.00;99079.41;2080335;28;20215;-74
2021/10/31 02:27:41;;;;;;;40.42;29.35;;;;;;;3.80;100.00;99077.25;2088610;28;20310;-74
2021/10/31 02:28:53;;;;;;;42.78;28.92;;;;;;;3.75;100.00;99074.56;2088229;28;20223;-75
2021/10/31 02:29:57;;;;;;;39.45;29.80;;;;;;;3.70;100.00;99077.16;2081419;28;20230;-75
2021/10/31 02:30:58;;;;;;;36.58;28.08;;;;;;;3.66;100.00;99084.00;2088674;28;20226;-74
2021/10/31 02:31:59;;;;;;;41.22;29.73;;;;;;;3.61;100.00;99083.94;2088482;28;20582;-74
2021/10/31 02:33:01;;;;;;;40.87;28.73;;;;;;;3.58;100.00;99081.81;2088509;28;20298;-74
2021/10/31 02:34:05;;;;;;;37.17;28.65;;;;;;;3.53;100.00;99079.91;2089362;28;20221;-74
2021/10/31 02:35:11;;;;;;;41.40;29.48;;;;;;;3.52;100.00;99080.94;2089185;28;20244;-74
2021/10/31 02:36:12;;;;;;;40.08;28.85;;;;;;;3.50;100.00;99076.97;2081995;28;20231;-74
2021/10/31 02:37:13;;;;;;;40.63;30.17;;;;;;;3.42;100.00;99072.94;2081114;28;20243;-74
2021/10/31 02:38:14;;;;;;;38.95;29.02;;;;;;;3.43;100.00;99081.66;2081040;28;20224;-74
2021/10/31 02:39:18;;;;;;;41.23;28.93;;;;;;;3.39;100.00;99087.44;2080253;28;20231;-74
2021/10/31 02:40:22;;;;;;;40.15;30.35;;;;;;;3.39;100.00;99087.44;2080294;28;20243;-74
2021/10/31 02:41:23;;;;;;;41.60;30.60;;;;;;;3.43;100.00;99081.66;2086103;28;20230;-74
2021/10/31 02:42:24;;;;;;;42.10;30.60;;;;;;;3.46;100.00;99075.88;2080182;28;20227;-74
2021/10/31 02:43:26;;;;;;;44.20;30.37;;;;;;;3.48;100.00;99074.59;2080225;28;20273;-74
2021/10/31 02:44:27;;;;;;;41.45;30.00;;;;;;;3.46;100.00;99081.13;2080440;28;20235;-75
2021/10/31 02:45:30;;;;;;;43.13;29.83;;;;;;;3.47;100.00;99080.09;2080184;28;20242;-74
2021/10/31 02:46:35;;;;;;;38.42;30.50;;;;;;;3.45;100.00;99082.19;2088561;28;20226;-74
2021/10/31 02:47:41;;;;;;;41.95;29.13;;;;;;;3.40;100.00;99089.03;2088218;28;20227;-75
2021/10/31 02:48:41;;;;;;;45.35;31.88;;;;;;;3.39;100.00;99090.06;2080553;28;20227;-74
2021/10/31 02:49:43;;;;;;;36.80;28.93;;;;;;;3.40;100.00;99088.22;2088455;28;20676;-75
2021/10/31 02:50:44;;;;;;;39.45;27.80;;;;;;;3.40;100.00;99088.22;2088325;28;20219;-74
2021/10/31 02:51:52;;;;;;;34.67;28.50;;;;;;;3.42;100.00;99090.59;2080605;28;20227;-74
2021/10/31 02:53:08;;;;;;;40.25;30.27;;;;;;;3.48;100.00;99084.34;2080709;28;20226;-74
2021/10/31 02:54:21;;;;;;;41.28;29.42;;;;;;;3.49;100.00;99091.22;2088247;28;20573;-74
2021/10/31 02:55:23;;;;;;;42.88;31.02;;;;;;;3.46;100.00;99079.28;2088524;28;20317;-76
2021/10/31 02:56:27;;;;;;;40.70;30.25;;;;;;;3.47;100.00;99088.81;2087860;28;20226;-74
2021/10/31 02:57:32;;;;;;;49.05;32.42;;;;;;;3.44;100.00;99091.16;2088275;28;20218;-74
2021/10/31 02:58:36;;;;;;;41.72;29.90;;;;;;;3.43;100.00;99097.47;2089128;28;20724;-74
2021/10/31 02:59:49;;;;;;;40.63;30.15;;;;;;;3.39;100.00;99092.69;2088594;28;20246;-74
2021/10/31 03:00:55;;;;;;;41.13;28.33;;;;;;;3.36;100.00;99095.03;2089143;28;20301;-74
2021/10/31 03:01:57;;;;;;;39.47;28.98;;;;;;;3.29;100.00;99089.94;2080989;28;20223;-74
2021/10/31 03:02:59;;;;;;;41.75;30.30;;;;;;;3.24;100.00;99089.91;2080064;28;20219;-74
2021/10/31 03:04:00;;;;;;;42.40;29.15;;;;;;;3.18;100.00;99088.25;2080068;28;20599;-74
2021/10/31 03:05:02;;;;;;;41.28;29.13;;;;;;;3.12;100.00;99086.56;2080127;28;20625;-74
2021/10/31 03:06:05;;;;;;;40.35;29.90;;;;;;;3.08;100.00;99088.13;2080080;28;20223;-74
2021/10/31 03:07:06;;;;;;;41.03;28.33;;;;;;;3.02;100.00;99097.81;2080067;28;20272;-74
2021/10/31 03:08:08;;;;;;;39.38;28.42;;;;;;;2.99;100.00;99089.59;2079650;28;20243;-75
2021/10/31 03:09:09;;;;;;;39.67;29.63;;;;;;;2.92;100.00;99095.06;2080109;28;20277;-74
2021/10/31 03:10:17;;;;;;;39.88;29.10;;;;;;;2.85;100.00;99091.78;2080036;28;20273;-74
2021/10/31 03:11:18;;;;;;;41.78;29.08;;;;;;;2.82;100.00;99097.56;2072639;28;20706;-74
2021/10/31 03:12:20;;;;;;;42.72;30.48;;;;;;;2.73;100.00;99089.28;2079661;28;20227;-74
2021/10/31 03:13:22;;;;;;;42.05;28.50;;;;;;;2.75;100.00;99110.91;2079917;28;20219;-74
2021/10/31 03:14:25;;;;;;;36.80;28.95;;;;;;;2.66;100.00;99108.94;2079467;28;20219;-74
2021/10/31 03:15:27;;;;;;;41.72;29.92;;;;;;;2.68;100.00;99107.63;2080765;28;20585;-74
2021/10/31 03:16:29;;;;;;;40.33;29.00;;;;;;;2.79;100.00;99104.13;2079896;28;20231;-74
2021/10/31 03:17:29;;;;;;;40.75;28.70;;;;;;;2.83;100.00;99123.66;2079894;28;20222;-74
2021/10/31 03:18:31;;;;;;;46.20;29.67;;;;;;;2.87;100.00;99110.00;2080808;28;20227;-74
2021/10/31 03:19:32;;;;;;;41.38;29.85;;;;;;;2.95;100.00;99113.00;2080110;28;20803;-74
2021/10/31 03:20:35;;;;;;;39.97;28.67;;;;;;;2.97;100.00;99107.50;2075886;28;20223;-74
2021/10/31 03:21:37;;;;;;;42.55;29.77;;;;;;;3.02;100.00;99118.09;2075694;28;20310;-74
2021/10/31 03:22:39;;;;;;;45.28;30.73;;;;;;;3.05;100.00;99109.72;2075727;28;20223;-74
2021/10/31 03:23:40;;;;;;;46.40;29.80;;;;;;;3.09;100.00;99108.16;2081159;28;20306;-74
2021/10/31 03:24:42;;;;;;;40.40;30.93;;;;;;;3.12;100.00;99115.56;2088335;28;20677;-74
2021/10/31 03:25:44;;;;;;;46.30;30.38;;;;;;;3.18;100.00;99116.44;2088085;28;20234;-74
2021/10/31 03:26:46;;;;;;;47.40;30.33;;;;;;;3.19;100.00;99118.03;2088216;28;20292;-74
2021/10/31 03:27:47;;;;;;;47.15;31.88;;;;;;;3.19;100.00;99118.03;2079554;28;20227;-74
2021/10/31 03:28:49;;;;;;;43.67;29.80;;;;;;;3.21;100.00;99115.94;2071802;28;20727;-74
2021/10/31 03:29:50;;;;;;;44.38;29.83;;;;;;;3.17;100.00;99115.66;2079953;28;20705;-74
2021/10/31 03:30:52;;;;;;;41.25;29.15;;;;;;;3.14;100.00;99115.34;2087621;28;20637;-74
2021/10/31 03:31:53;;;;;;;39.10;29.33;;;;;;;3.10;100.00;99121.09;2087845;28;20223;-75
2021/10/31 03:32:55;;;;;;;39.73;29.57;;;;;;;3.06;100.00;99119.22;2087326;28;20257;-74
2021/10/31 03:33:56;;;;;;;40.60;30.00;;;;;;;2.99;100.00;99113.31;2087900;28;20223;-74
2021/10/31 03:34:59;;;;;;;43.67;30.85;;;;;;;2.95;100.00;99109.56;2088935;28;20230;-74
2021/10/31 03:36:00;;;;;;;38.38;29.42;;;;;;;2.90;100.00;99109.53;2088312;28;20226;-74
2021/10/31 03:37:02;;;;;;;41.07;29.23;;;;;;;2.88;100.00;99116.88;2088089;28;20211;-73
2021/10/31 03:38:03;;;;;;;40.45;29.70;;;;;;;2.84;100.00;99112.06;2088826;28;20226;-74
2021/10/31 03:39:05;;;;;;;39.60;29.40;;;;;;;2.81;100.00;99112.56;2087688;28;20226;-74
2021/10/31 03:40:06;;;;;;;44.28;31.40;;;;;;;2.76;100.00;99115.13;2088178;28;20223;-74
2021/10/31 03:41:10;;;;;;;42.13;31.40;;;;;;;2.71;100.00;99115.06;2079441;28;20225;-74
2021/10/31 03:42:11;;;;;;;42.08;29.85;;;;;;;2.70;100.00;99110.06;2080051;28;20230;-74
2021/10/31 03:43:13;;;;;;;42.80;29.83;;;;;;;2.66;100.00;99125.53;2079924;28;20289;-74
2021/10/31 03:44:14;;;;;;;39.65;29.30;;;;;;;2.64;100.00;99130.25;2071687;28;20228;-74
2021/10/31 03:45:16;;;;;;;41.88;29.25;;;;;;;2.61;100.00;99130.75;2071340;28;20232;-74
2021/10/31 03:46:17;;;;;;;43.08;29.63;;;;;;;2.58;100.00;99133.03;2079941;28;20215;-74
2021/10/31 03:47:20;;;;;;;40.07;29.17;;;;;;;2.54;100.00;99124.84;2080502;28;20303;-74
2021/10/31 03:48:23;;;;;;;32.65;27.48;;;;;;;2.52;100.00;99124.28;2079792;28;20223;-74
2021/10/31 03:49:27;;;;;;;42.25;29.77;;;;;;;2.50;100.00;99123.72;2079542;28;20278;-74
2021/10/31 03:50:28;;;;;;;37.28;28.40;;;;;;;2.47;100.00;99124.22;2079990;28;20230;-74
2021/10/31 03:51:30;;;;;;;38.20;29.67;;;;;;;2.43;100.00;99125.72;2088129;28;20696;-74
2021/10/31 03:52:31;;;;;;;44.25;29.17;;;;;;;2.42;100.00;99124.13;2087898;28;20617;-74
2021/10/31 03:53:33;;;;;;;38.97;29.53;;;;;;;2.38;100.00;99129.09;2087520;28;20645;-74
2021/10/31 03:54:33;;;;;;;38.80;28.80;;;;;;;2.41;100.00;99133.06;2096160;28;20224;-74
2021/10/31 03:55:37;;;;;;;40.20;28.77;;;;;;;2.40;100.00;99127.00;2087809;28;20250;-74
2021/10/31 03:56:43;;;;;;;35.83;29.27;;;;;;;2.38;100.00;99126.44;2087655;28;20234;-74
2021/10/31 03:57:45;;;;;;;43.55;29.30;;;;;;;2.38;100.00;99123.03;2088402;28;20229;-74
2021/10/31 03:58:45;;;;;;;42.95;29.52;;;;;;;2.38;100.00;99112.50;2087853;28;20226;-74
2021/10/31 03:59:47;;;;;;;40.20;30.03;;;;;;;2.37;100.00;99121.44;2079675;28;20302;-74
2021/10/31 04:00:49;;;;;;;38.05;28.92;;;;;;;2.36;100.00;99122.47;2088086;28;20268;-74
2021/10/31 04:01:50;;;;;;;39.22;29.33;;;;;;;2.29;100.00;99109.47;2088653;28;20541;-74
2021/10/31 04:02:52;;;;;;;39.75;28.65;;;;;;;2.30;100.00;99115.53;2088363;28;20227;-74
2021/10/31 04:03:53;;;;;;;41.08;29.05;;;;;;;2.26;100.00;99121.28;2088323;28;20314;-74
2021/10/31 04:04:55;;;;;;;40.23;30.20;;;;;;;2.21;100.00;99108.03;2088599;28;20222;-74
2021/10/31 04:05:56;;;;;;;37.55;29.33;;;;;;;2.20;100.00;99119.59;2087632;28;20975;-74
2021/10/31 04:06:58;;;;;;;37.20;29.60;;;;;;;2.17;100.00;99125.34;2087856;28;20573;-74
2021/10/31 04:07:59;;;;;;;41.03;30.00;;;;;;;2.14;100.00;99125.00;2079402;28;20222;-74
2021/10/31 04:09:01;;;;;;;37.57;29.10;;;;;;;2.09;100.00;99125.75;2088007;28;20211;-74
2021/10/31 04:10:04;;;;;;;38.00;28.15;;;;;;;2.08;100.00;99118.88;2088662;28;20211;-74
2021/10/31 04:11:06;;;;;;;40.10;28.30;;;;;;;2.06;100.00;99130.66;2088087;28;20237;-74
2021/10/31 04:12:08;;;;;;;41.30;28.70;;;;;;;2.02;100.00;99127.72;2075267;28;20219;-74
2021/10/31 04:13:10;;;;;;;40.20;28.10;;;;;;;1.99;100.00;99125.56;2083482;28;20736;-75
2021/10/31 04:14:10;;;;;;;37.65;29.35;;;;;;;1.96;100.00;99126.84;2079550;28;20224;-74
2021/10/31 04:15:12;;;;;;;44.50;28.97;;;;;;;1.96;100.00;99112.88;2071532;28;20235;-74
2021/10/31 04:16:15;;;;;;;40.05;29.30;;;;;;;1.98;100.00;99113.44;2079547;28;20222;-74
2021/10/31 04:17:18;;;;;;;37.78;27.58;;;;;;;1.98;100.00;99116.06;2080384;28;20629;-74
2021/10/31 04:18:19;;;;;;;31.15;26.90;;;;;;;2.01;100.00;99107.72;2080427;28;20219;-74
2021/10/31 04:19:21;;;;;;;40.90;28.83;;;;;;;2.05;100.00;99116.72;2079568;28;20298;-74
2021/10/31 04:20:22;;;;;;;42.00;28.60;;;;;;;2.04;100.00;99112.50;2071107;28;20239;-75
2021/10/31 04:21:24;;;;;;;39.93;29.53;;;;;;;2.02;100.00;99117.22;2071656;28;20310;-74
2021/10/31 04:22:24;;;;;;;42.13;29.88;;;;;;;2.04;100.00;99119.59;2079762;28;20603;-74
2021/10/31 04:23:28;;;;;;;39.53;28.87;;;;;;;2.03;100.00;99120.63;2079919;28;20304;-74
2021/10/31 04:24:30;;;;;;;39.30;29.20;;;;;;;2.03;100.00;99120.63;2079945;28;20557;-74
2021/10/31 04:25:32;;;;;;;40.97;30.35;;;;;;;2.01;100.00;99120.09;2079478;28;20241;-74
2021/10/31 04:26:32;;;;;;;39.67;30.13;;;;;;;2.10;100.00;99122.06;2079791;28;20219;-74
2021/10/31 04:27:36;;;;;;;41.97;29.87;;;;;;;2.04;100.00;99117.75;2083604;28;20247;-74
2021/10/31 04:28:36;;;;;;;43.15;30.52;;;;;;;2.03;100.00;99113.53;2083860;28;20230;-74
2021/10/31 04:29:39;;;;;;;41.63;29.80;;;;;;;1.99;100.00;99105.31;2079982;28;20223;-75
2021/10/31 04:30:43;;;;;;;39.08;29.52;;;;;;;1.99;100.00;99112.41;2079360;28;20223;-74
2021/10/31 04:31:44;;;;;;;38.00;29.45;;;;;;;1.94;100.00;99112.34;2079447;28;20705;-74
2021/10/31 04:32:45;;;;;;;39.55;29.55;;;;;;;1.92;100.00;99111.78;2071422;28;20220;-74
2021/10/31 04:33:47;;;;;;;40.30;29.93;;;;;;;1.91;100.00;99123.31;2075790;28;20618;-74
2021/10/31 04:34:48;;;;;;;41.63;29.52;;;;;;;1.88;100.00;99110.66;2075437;28;20227;-74
2021/10/31 04:35:50;;;;;;;37.93;29.30;;;;;;;1.94;100.00;99117.59;2079678;28;20226;-74
2021/10/31 04:36:52;;;;;;;40.42;29.13;;;;;;;1.95;100.00;99112.09;2079450;28;20227;-74
2021/10/31 04:37:58;;;;;;;41.08;28.67;;;;;;;1.98;100.00;99114.25;2079296;28;20230;-75
2021/10/31 04:38:59;;;;;;;41.47;28.35;;;;;;;1.99;100.00;99117.66;2079623;28;20310;-74
2021/10/31 04:40:03;;;;;;;36.00;28.80;;;;;;;1.98;100.00;99108.97;2079571;28;20223;-74
2021/10/31 04:41:05;;;;;;;39.17;29.38;;;;;;;1.99;100.00;99109.78;2080359;28;20670;-74
2021/10/31 04:42:09;;;;;;;35.85;27.75;;;;;;;1.95;100.00;99109.47;2079579;28;20696;-74
2021/10/31 04:43:12;;;;;;;41.10;29.70;;;;;;;1.93;100.00;99103.66;2078976;28;20219;-74
2021/10/31 04:44:13;;;;;;;38.20;29.00;;;;;;;1.94;100.00;99101.81;2079833;28;20235;-74
2021/10/31 04:45:15;;;;;;;38.45;29.42;;;;;;;1.98;100.00;99095.81;2089213;28;20233;-74
2021/10/31 04:46:17;;;;;;;44.28;30.67;;;;;;;2.03;100.00;99105.66;2090187;28;20746;-74
2021/10/31 04:47:18;;;;;;;36.97;29.40;;;;;;;2.04;100.00;99104.59;2090114;28;20241;-74
2021/10/31 04:48:21;;;;;;;37.17;28.67;;;;;;;2.02;100.00;99104.06;2089301;28;20226;-74
2021/10/31 04:49:23;;;;;;;37.83;29.08;;;;;;;1.99;100.00;99105.31;2089057;28;20222;-74
2021/10/31 04:50:24;;;;;;;34.97;27.80;;;;;;;1.96;100.00;99095.25;2089226;28;20222;-74
2021/10/31 04:51:27;;;;;;;35.60;28.07;;;;;;;1.91;100.00;99100.47;2089458;28;20672;-74
2021/10/31 04:52:31;;;;;;;38.30;28.33;;;;;;;1.89;100.00;99109.59;2090165;28;20226;-74